Latest Weather Observations for Little Bay

IDN60801

Issued at 5:32 pm EDT Saturday 25 February 2017 (issued every 30 minutes, with the page automatically refreshed every 10 minutes)

About weather observations | Map of weather stations | Latest weather observations for NSW | Other Formats
Station Details ID: 066051 Name: LITTLE BAY (THE COAST GOLF CLUB) Lat: -33.98 Lon: 151.25 Height: 22.0 m
Data from the previous 72 hours. | See also: Recent months for locations in New South Wales
Date/Time
EDT
Temp
°C
App
Temp
°C
Dew
Point
°C
Rel
Hum
%
Delta-T
°C
Wind Press
QNH
hPa
Press
MSL
hPa
Rain since
9am
mm
Dir  Spd
km/h
Gust
km/h
Spd
kts
Gust
kts
25/05:30pm - - - - - SW 17 30 9 16 - - -
25/05:00pm - - - - - SSW 24 41 13 22 - - -
25/04:30pm - - - - - SSW 22 33 12 18 - - -
25/04:00pm - - - - - SSW 26 35 14 19 - - -
25/03:30pm - - - - - SSW 20 30 11 16 - - -
25/03:00pm - - - - - SW 20 33 11 18 - - -
25/02:30pm - - - - - SSW 24 35 13 19 - - -
25/02:00pm - - - - - SSW 26 39 14 21 - - -
25/01:30pm - - - - - SSW 28 39 15 21 - - -
25/01:00pm - - - - - SSW 28 39 15 21 - - -
25/12:30pm - - - - - S 24 37 13 20 - - -
25/12:00pm - - - - - S 28 35 15 19 - - -
25/11:30am - - - - - S 26 33 14 18 - - -
25/11:00am - - - - - SSW 26 35 14 19 - - -
25/10:30am - - - - - SSW 28 41 15 22 - - -
25/10:00am - - - - - SSW 28 39 15 21 - - -
25/09:30am - - - - - SSW 30 43 16 23 - - -
25/09:00am - - - - - SSW 32 43 17 23 - - -
25/08:30am - - - - - SSW 28 41 15 22 - - -
25/08:00am - - - - - SSW 28 39 15 21 - - -
25/07:30am - - - - - S 28 39 15 21 - - -
25/07:00am - - - - - S 30 43 16 23 - - -
25/06:30am - - - - - S 30 43 16 23 - - -
25/06:00am - - - - - SSW 32 46 17 25 - - -
25/05:49am - - - - - SSW 30 50 16 27 - - -
25/05:30am - - - - - SSW 30 41 16 22 - - -
25/05:00am - - - - - SSW 32 50 17 27 - - -
25/04:51am - - - - - SSW 30 50 16 27 - - -
25/04:30am - - - - - SSW 30 41 16 22 - - -
25/04:00am - - - - - SSW 32 43 17 23 - - -
25/03:48am - - - - - SSW 30 52 16 28 - - -
25/03:30am - - - - - SW 20 33 11 18 - - -
25/03:00am - - - - - SW 26 41 14 22 - - -
25/02:30am - - - - - SSW 30 44 16 24 - - -
25/02:00am - - - - - SSW 28 44 15 24 - - -
25/01:30am - - - - - SSW 26 39 14 21 - - -
25/01:00am - - - - - SW 22 33 12 18 - - -
25/12:30am - - - - - S 28 37 15 20 - - -
25/12:00am - - - - - S 28 37 15 20 - - -
 
Date/Time
EDT
Temp
°C
App
Temp
°C
Dew
Point
°C
Rel
Hum
%
Delta-T
°C
Wind Press
QNH
hPa
Press
MSL
hPa
Rain since
9am
mm
Dir  Spd
km/h
Gust
km/h
Spd
kts
Gust
kts
24/11:30pm - - - - - SW 19 28 10 15 - - -
24/11:00pm - - - - - SSW 20 33 11 18 - - -
24/10:30pm - - - - - SSW 22 33 12 18 - - -
24/10:00pm - - - - - SSW 19 26 10 14 - - -
24/09:30pm - - - - - SSW 19 28 10 15 - - -
24/09:00pm - - - - - SSW 19 26 10 14 - - -
24/08:30pm - - - - - SSW 19 28 10 15 - - -
24/08:00pm - - - - - SSW 22 28 12 15 - - -
24/07:30pm - - - - - SSW 22 30 12 16 - - -
24/07:00pm - - - - - SW 13 20 7 11 - - -
24/06:30pm - - - - - SSW 17 20 9 11 - - -
24/06:00pm - - - - - SSW 19 24 10 13 - - -
24/05:30pm - - - - - SSW 20 28 11 15 - - -
24/05:00pm - - - - - S 19 24 10 13 - - -
24/04:30pm - - - - - SSW 11 15 6 8 - - -
24/04:00pm - - - - - SSW 13 17 7 9 - - -
24/03:30pm - - - - - SSW 15 22 8 12 - - -
24/03:00pm - - - - - SSW 17 24 9 13 - - -
24/02:30pm - - - - - S 19 24 10 13 - - -
24/02:00pm - - - - - SSW 19 24 10 13 - - -
24/01:30pm - - - - - S 20 26 11 14 - - -
24/01:00pm - - - - - S 22 26 12 14 - - -
24/12:30pm - - - - - S 20 26 11 14 - - -
24/12:00pm - - - - - S 17 22 9 12 - - -
24/11:30am - - - - - S 17 22 9 12 - - -
24/11:00am - - - - - S 19 26 10 14 - - -
24/10:30am - - - - - SSW 17 26 9 14 - - -
24/10:00am - - - - - SSW 17 22 9 12 - - -
24/09:30am - - - - - SSW 17 24 9 13 - - -
24/09:00am - - - - - SSW 15 20 8 11 - - -
24/08:30am - - - - - SSW 15 20 8 11 - - -
24/08:00am - - - - - SSW 11 17 6 9 - - -
24/07:30am - - - - - S 13 15 7 8 - - -
24/07:00am - - - - - SSW 13 19 7 10 - - -
24/06:30am - - - - - SSW 11 19 6 10 - - -
24/06:00am - - - - - S 7 13 4 7 - - -
24/05:30am - - - - - S 4 7 2 4 - - -
24/05:00am - - - - - CALM 0 0 0 0 - - -
24/04:30am - - - - - N 6 7 3 4 - - -
24/04:00am - - - - - NNE 7 11 4 6 - - -
24/03:30am - - - - - NNE 9 13 5 7 - - -
24/03:00am - - - - - NNE 9 15 5 8 - - -
24/02:30am - - - - - NNE 19 24 10 13 - - -
24/02:00am - - - - - NNE 15 20 8 11 - - -
24/01:30am - - - - - N 13 19 7 10 - - -
24/01:00am - - - - - NNE 17 24 9 13 - - -
24/12:30am - - - - - N 15 19 8 10 - - -
24/12:00am - - - - - NNE 19 24 10 13 - - -
 
Date/Time
EDT
Temp
°C
App
Temp
°C
Dew
Point
°C
Rel
Hum
%
Delta-T
°C
Wind Press
QNH
hPa
Press
MSL
hPa
Rain since
9am
mm
Dir  Spd
km/h
Gust
km/h
Spd
kts
Gust
kts
23/11:30pm - - - - - N 19 28 10 15 - - -
23/11:00pm - - - - - N 19 28 10 15 - - -
23/10:30pm - - - - - N 19 32 10 17 - - -
23/10:00pm - - - - - N 20 32 11 17 - - -
23/09:30pm - - - - - N 22 35 12 19 - - -
23/09:00pm - - - - - NNE 28 39 15 21 - - -
23/08:30pm - - - - - NNE 28 39 15 21 - - -
23/08:00pm - - - - - NNE 33 48 18 26 - - -
23/07:30pm - - - - - NNE 30 43 16 23 - - -
23/07:00pm - - - - - NNE 33 46 18 25 - - -
23/06:30pm - - - - - NNE 30 41 16 22 - - -
23/06:00pm - - - - - NNE 32 44 17 24 - - -
23/05:30pm - - - - - NNE 32 46 17 25 - - -
23/05:00pm - - - - - NNE 35 44 19 24 - - -
23/04:30pm - - - - - NNE 32 43 17 23 - - -
23/04:00pm - - - - - NNE 30 43 16 23 - - -
23/03:30pm - - - - - NNE 28 41 15 22 - - -
23/03:00pm - - - - - NNE 30 41 16 22 - - -
23/02:30pm - - - - - NNE 28 37 15 20 - - -
23/02:00pm - - - - - NNE 26 35 14 19 - - -
23/01:30pm - - - - - NNE 32 41 17 22 - - -
23/01:00pm - - - - - NNE 28 35 15 19 - - -
23/12:30pm - - - - - NNE 28 35 15 19 - - -
23/12:00pm - - - - - NNE 28 35 15 19 - - -
23/11:30am - - - - - NNE 24 33 13 18 - - -
23/11:00am - - - - - NNE 22 28 12 15 - - -
23/10:30am - - - - - NNE 24 32 13 17 - - -
23/10:00am - - - - - N 24 35 13 19 - - -
23/09:30am - - - - - NNE 24 33 13 18 - - -
23/09:00am - - - - - N 22 33 12 18 - - -
23/08:30am - - - - - N 20 28 11 15 - - -
23/08:00am - - - - - N 19 28 10 15 - - -
23/07:30am - - - - - N 17 26 9 14 - - -
23/07:00am - - - - - N 15 24 8 13 - - -
23/06:30am - - - - - N 17 24 9 13 - - -
23/06:00am - - - - - N 19 28 10 15 - - -
23/05:30am - - - - - N 20 30 11 16 - - -
23/05:00am - - - - - N 22 32 12 17 - - -
23/04:30am - - - - - N 22 33 12 18 - - -
23/04:00am - - - - - N 20 30 11 16 - - -
23/03:30am - - - - - N 20 32 11 17 - - -
23/03:00am - - - - - N 19 30 10 16 - - -
23/02:30am - - - - - N 20 30 11 16 - - -
23/02:00am - - - - - N 19 30 10 16 - - -
23/01:30am - - - - - N 19 26 10 14 - - -
23/01:00am - - - - - N 19 30 10 16 - - -
23/12:30am - - - - - NNE 24 32 13 17 - - -
23/12:00am - - - - - NNE 30 43 16 23 - - -
 
Date/Time
EDT
Temp
°C
App
Temp
°C
Dew
Point
°C
Rel
Hum
%
Delta-T
°C
Wind Press
QNH
hPa
Press
MSL
hPa
Rain since
9am
mm
Dir  Spd
km/h
Gust
km/h
Spd
kts
Gust
kts
22/11:30pm - - - - - NNE 30 43 16 23 - - -
22/11:00pm - - - - - NNE 28 37 15 20 - - -
22/10:30pm - - - - - NNE 24 35 13 19 - - -
22/10:00pm - - - - - NNE 26 35 14 19 - - -
22/09:30pm - - - - - NNE 26 37 14 20 - - -
22/09:00pm - - - - - NNE 26 37 14 20 - - -
22/08:30pm - - - - - NNE 28 39 15 21 - - -
22/08:00pm - - - - - NNE 32 41 17 22 - - -
22/07:30pm - - - - - NNE 30 41 16 22 - - -
22/07:00pm - - - - - NNE 30 37 16 20 - - -
22/06:30pm - - - - - NNE 30 37 16 20 - - -
22/06:00pm - - - - - NNE 28 37 15 20 - - -

Other Formats:

Comma delimited format used in spreadsheet applications
http://www.bom.gov.au/fwo/IDN60801/IDN60801.94780.axf

JavaScript Object Notation format (JSON) in row-major order
http://www.bom.gov.au/fwo/IDN60801/IDN60801.94780.json